Terminal Aerodrome Forecast
Issued by NWS

Home | Current Version | Previous Version | Text Only | Print | Product List | Glossary On
Versions: 1 2 3 4 5 6 7 8 9 10 11 12 13 14 15 16
000
FTUS41 KLWX 032320
TAFMTN
TAF
KMTN 032320Z 0400/0424 14005KT P6SM OVC080
     FM040400 12006KT 5SM -SHRA BR SCT015 OVC050
     FM040800 08007KT 5SM -SHRA BR BKN015 OVC050
     FM041000 06008KT 5SM -SHRA BR BKN008 OVC015
     FM041600 03008KT 5SM -SHRA BKN015 OVC025
      AMD NOT SKED 0402/0412=

USA.gov is the U.S. government's official web portal to all federal, state and local government web resources and services.